createdAt,value
2023-05-15T00:01:55.292Z,4.05
2023-05-15T00:06:59.967Z,4.03
2023-05-15T00:12:07.483Z,4.40
2023-05-15T00:17:12.837Z,5.30
2023-05-15T00:22:17.748Z,4.05
2023-05-15T00:27:25.209Z,4.80
2023-05-15T00:32:30.045Z,4.25
2023-05-15T00:37:34.786Z,3.63
2023-05-15T00:42:42.670Z,4.20
2023-05-15T00:47:47.761Z,3.80
2023-05-15T00:52:52.571Z,3.33
2023-05-15T00:58:05.676Z,3.42
2023-05-15T01:03:10.874Z,3.67
2023-05-15T01:08:19.479Z,3.90
2023-05-15T01:13:27.336Z,4.63
2023-05-15T01:18:32.865Z,3.88
2023-05-15T01:23:47.736Z,4.50
2023-05-15T01:28:57.653Z,4.32
2023-05-15T01:39:07.424Z,3.97
2023-05-15T01:44:17.893Z,4.15
2023-05-15T01:49:23.138Z,4.30
2023-05-15T01:54:28.019Z,4.53
2023-05-15T01:59:35.944Z,3.22
2023-05-15T02:04:41.190Z,3.92
2023-05-15T02:09:46.414Z,4.22
2023-05-15T02:14:54.645Z,3.67
2023-05-15T02:19:59.408Z,3.88
2023-05-15T02:25:04.354Z,3.55
2023-05-15T02:30:23.405Z,3.17
2023-05-15T02:35:30.809Z,3.58
2023-05-15T02:40:37.484Z,3.63
2023-05-15T02:45:45.143Z,3.33
2023-05-15T02:50:49.949Z,4.15
2023-05-15T02:55:54.803Z,4.05
2023-05-15T03:01:02.197Z,3.78
2023-05-15T03:06:07.280Z,3.55
2023-05-15T03:11:12.120Z,3.63
2023-05-15T03:16:19.609Z,3.88
2023-05-15T03:21:24.367Z,4.90
2023-05-15T03:26:29.137Z,4.22
2023-05-15T03:31:36.467Z,5.38
2023-05-15T03:36:41.206Z,5.07
2023-05-15T03:41:45.863Z,5.10
2023-05-15T03:46:53.258Z,5.03
2023-05-15T03:51:59.302Z,4.85
2023-05-15T03:57:04.615Z,5.28
2023-05-15T04:02:11.968Z,5.57
2023-05-15T04:07:16.772Z,5.63
2023-05-15T04:12:22.498Z,6.10
2023-05-15T04:17:30.830Z,5.55
2023-05-15T04:22:35.553Z,5.85
2023-05-15T04:27:40.351Z,5.50
2023-05-15T04:32:47.831Z,5.88
2023-05-15T04:37:52.587Z,6.57
2023-05-15T04:42:57.298Z,5.53
2023-05-15T04:48:04.703Z,6.47
2023-05-15T04:53:09.658Z,5.45
2023-05-15T04:58:14.445Z,6.13
2023-05-15T05:03:21.802Z,6.20
2023-05-15T05:08:26.595Z,6.30
2023-05-15T05:13:31.764Z,6.90
2023-05-15T05:18:39.263Z,13.93
2023-05-15T05:23:44.235Z,9.32
2023-05-15T05:28:48.999Z,8.35
2023-05-15T05:33:56.424Z,6.63
2023-05-15T05:39:01.248Z,7.63
2023-05-15T05:44:08.180Z,5.90
2023-05-15T05:49:15.854Z,5.75
2023-05-15T05:54:21.002Z,5.53
2023-05-15T05:59:25.729Z,5.25
2023-05-15T06:09:49.055Z,5.22
2023-05-15T06:14:53.862Z,6.15
2023-05-15T06:19:58.571Z,5.78
2023-05-15T06:25:06.095Z,5.70
2023-05-15T06:30:21.753Z,6.53
2023-05-15T06:35:27.137Z,6.22
2023-05-15T06:40:34.976Z,6.38
2023-05-15T06:45:39.772Z,6.13
2023-05-15T06:50:44.483Z,6.57
2023-05-15T06:55:51.749Z,6.47
2023-05-15T07:00:56.977Z,6.63
2023-05-15T07:06:02.892Z,6.22
2023-05-15T07:11:10.361Z,6.32
2023-05-15T07:16:15.059Z,5.90
2023-05-15T07:21:19.793Z,6.55
2023-05-15T07:26:32.817Z,5.57
2023-05-15T07:31:40.811Z,6.10
2023-05-15T07:36:45.687Z,7.20
2023-05-15T07:41:53.106Z,6.40
2023-05-15T07:46:58.335Z,7.80
2023-05-15T07:52:03.919Z,9.10
2023-05-15T07:57:11.285Z,9.52
2023-05-15T08:02:16.090Z,8.77
2023-05-15T08:07:21.064Z,9.73
2023-05-15T08:12:29.281Z,10.55
2023-05-15T08:17:34.107Z,10.23
2023-05-15T08:22:39.398Z,8.05
2023-05-15T08:27:46.846Z,8.40
2023-05-15T08:32:51.772Z,7.68
2023-05-15T08:37:56.895Z,7.65
2023-05-15T08:43:07.122Z,6.18
2023-05-15T08:48:13.758Z,7.50
2023-05-15T08:53:18.766Z,6.57
2023-05-15T08:58:28.593Z,5.97
2023-05-15T09:03:33.505Z,7.07
2023-05-15T09:08:38.794Z,8.27
2023-05-15T09:13:46.226Z,8.05
2023-05-15T09:18:52.252Z,10.63
2023-05-15T09:23:58.145Z,7.68
2023-05-15T09:29:07.833Z,7.40
2023-05-15T09:34:15.358Z,6.20
2023-05-15T09:39:25.401Z,7.72
2023-05-15T12:13:48.730Z,6.22
2023-05-15T12:18:53.646Z,5.93
2023-05-15T12:24:07.548Z,5.50
2023-05-15T12:29:16.448Z,6.93
2023-05-15T12:34:21.293Z,5.30
2023-05-15T12:39:25.987Z,5.03
2023-05-15T13:27:46.200Z,4.93
2023-05-15T13:32:52.552Z,4.67
2023-05-15T13:37:59.699Z,5.00
2023-05-15T13:43:07.207Z,4.72
2023-05-15T13:48:12.186Z,4.45
2023-05-15T13:53:17.362Z,4.70
2023-05-15T13:58:26.906Z,4.43
2023-05-15T14:36:12.514Z,4.28
2023-05-15T14:41:20.359Z,5.60
2023-05-15T14:46:28.449Z,4.72
2023-05-15T14:51:33.378Z,5.15
2023-05-15T14:56:40.702Z,6.28
2023-05-15T15:01:46.805Z,5.10
2023-05-15T15:06:51.683Z,5.38
2023-05-15T15:11:58.968Z,8.48
2023-05-15T15:17:03.936Z,6.72
2023-05-15T15:22:08.646Z,6.00
2023-05-15T15:27:15.931Z,6.90
2023-05-15T15:32:20.897Z,8.70
2023-05-15T15:37:29.389Z,7.88
2023-05-15T15:42:39.208Z,9.70
2023-05-15T15:47:44.036Z,11.10
2023-05-15T15:52:48.901Z,8.82
2023-05-15T15:57:56.305Z,7.85
2023-05-15T16:03:03.742Z,8.13
2023-05-15T16:08:08.695Z,8.50
2023-05-15T16:13:16.374Z,9.05
2023-05-15T16:18:21.074Z,10.98
2023-05-15T16:23:25.765Z,10.07
2023-05-15T16:28:33.053Z,10.52
2023-05-15T16:33:37.718Z,10.73
2023-05-15T16:38:42.533Z,9.32
2023-05-15T16:43:50.208Z,9.70
2023-05-15T16:48:54.875Z,9.73
2023-05-15T16:53:59.804Z,9.27
2023-05-15T16:59:07.405Z,9.80
2023-05-15T17:04:12.143Z,9.13
2023-05-15T17:09:16.925Z,9.20
2023-05-15T17:14:24.257Z,9.32
2023-05-15T17:19:29.596Z,8.98
2023-05-15T17:24:49.383Z,9.77
2023-05-15T17:29:58.931Z,10.25
2023-05-15T17:35:03.765Z,10.00
2023-05-15T17:40:09.378Z,10.10
2023-05-15T17:45:17.077Z,9.18
2023-05-15T17:50:21.779Z,11.10
2023-05-15T17:55:26.642Z,10.77
2023-05-15T18:00:34.126Z,10.35
2023-05-15T18:05:38.953Z,10.40
2023-05-15T18:10:43.732Z,10.52
2023-05-15T18:15:51.302Z,8.80
2023-05-15T18:20:57.808Z,9.35
2023-05-15T18:26:02.496Z,9.18
2023-05-15T18:31:10.369Z,9.02
2023-05-15T18:36:15.198Z,8.90
2023-05-15T18:41:20.172Z,10.00
2023-05-15T18:46:28.611Z,9.65
2023-05-15T18:51:33.591Z,12.23
2023-05-15T18:56:38.679Z,9.82
2023-05-15T19:01:49.023Z,10.35
2023-05-15T19:06:53.851Z,8.65
2023-05-15T19:11:58.584Z,9.57
2023-05-15T19:17:06.112Z,9.10
2023-05-15T19:22:10.933Z,8.52
2023-05-15T19:27:15.626Z,8.70
2023-05-15T19:32:23.230Z,10.07
2023-05-15T19:37:28.226Z,8.85
2023-05-15T19:42:33.117Z,9.27
2023-05-15T19:47:40.477Z,9.10
2023-05-15T19:52:45.589Z,9.45
2023-05-15T19:57:50.443Z,9.75
2023-05-15T20:08:47.287Z,8.85
2023-05-15T20:13:52.044Z,9.77
2023-05-15T20:18:57.531Z,10.48
2023-05-15T20:24:05.002Z,10.57
2023-05-15T20:29:09.781Z,9.32
2023-05-15T20:34:15.494Z,10.73
2023-05-15T20:39:22.914Z,10.82
2023-05-15T20:44:27.632Z,10.75
2023-05-15T20:49:32.427Z,10.82
2023-05-15T20:54:39.968Z,10.20
2023-05-15T20:59:44.686Z,10.63
2023-05-15T21:04:49.573Z,10.23
2023-05-15T21:09:57.335Z,11.02
2023-05-15T21:15:02.112Z,10.90
2023-05-15T21:20:07.450Z,11.07
2023-05-15T21:25:16.245Z,10.43
2023-05-15T21:30:21.039Z,10.15
2023-05-15T21:35:25.938Z,11.85
2023-05-15T21:40:33.325Z,10.23
2023-05-15T21:45:38.146Z,10.75
2023-05-15T21:50:42.937Z,11.07
2023-05-15T21:55:52.359Z,11.30
2023-05-15T22:00:57.193Z,11.10
2023-05-15T22:06:02.135Z,11.35
2023-05-15T22:11:10.025Z,11.18
2023-05-15T22:16:15.326Z,12.00
2023-05-15T22:21:20.205Z,12.25
2023-05-15T22:26:27.704Z,11.90
2023-05-15T22:31:32.458Z,11.93
2023-05-15T22:36:37.302Z,12.63
2023-05-15T22:41:44.739Z,11.52
2023-05-15T22:46:49.932Z,10.77
2023-05-15T22:51:54.821Z,11.50
2023-05-15T22:57:02.181Z,12.15
2023-05-15T23:07:28.476Z,11.50
2023-05-15T23:12:35.782Z,11.98
2023-05-15T23:17:40.645Z,11.55
2023-05-15T23:22:45.429Z,11.27
2023-05-15T23:27:53.244Z,12.40
2023-05-15T23:32:58.018Z,13.07
2023-05-15T23:38:02.897Z,11.75
2023-05-15T23:43:10.473Z,12.60
2023-05-15T23:48:15.328Z,14.10
2023-05-15T23:53:20.184Z,14.32
2023-05-15T23:58:27.554Z,12.93
